sensor_id;sensor_type;location;lat;lon;timestamp;pressure;altitude;pressure_sealevel;temperature;humidity
13767;BME280;47980;48.794;9.176;2022-08-11T00:01:54;98656.06;;;21.62;43.08
13767;BME280;47980;48.794;9.176;2022-08-11T00:04:34;98652.19;;;21.49;43.93
13767;BME280;47980;48.794;9.176;2022-08-11T00:07:08;98652.94;;;21.42;43.78
13767;BME280;47980;48.794;9.176;2022-08-11T00:09:41;98657.22;;;21.68;43.37
13767;BME280;47980;48.794;9.176;2022-08-11T00:12:16;98653.72;;;21.68;43.58
13767;BME280;47980;48.794;9.176;2022-08-11T00:14:56;98655.66;;;21.56;44.16
13767;BME280;47980;48.794;9.176;2022-08-11T00:17:32;98644.47;;;21.44;44.59
13767;BME280;47980;48.794;9.176;2022-08-11T00:20:07;98646.44;;;21.65;43.24
13767;BME280;47980;48.794;9.176;2022-08-11T00:22:42;98647.53;;;21.46;44.84
13767;BME280;47980;48.794;9.176;2022-08-11T00:25:18;98652.56;;;21.44;44.37
13767;BME280;47980;48.794;9.176;2022-08-11T00:27:54;98647.91;;;21.37;44.88
13767;BME280;47980;48.794;9.176;2022-08-11T00:30:37;98640.53;;;21.27;45.03
13767;BME280;47980;48.794;9.176;2022-08-11T00:33:09;98642.47;;;21.23;45.08
13767;BME280;47980;48.794;9.176;2022-08-11T00:35:44;98640.91;;;21.14;45.98
13767;BME280;47980;48.794;9.176;2022-08-11T00:38:23;98653.19;;;21.01;45.76
13767;BME280;47980;48.794;9.176;2022-08-11T00:41:02;98652.78;;;20.96;46.36
13767;BME280;47980;48.794;9.176;2022-08-11T00:43:48;98648.16;;;20.96;45.48
13767;BME280;47980;48.794;9.176;2022-08-11T00:46:30;98650.47;;;20.94;45.69
13767;BME280;47980;48.794;9.176;2022-08-11T00:49:16;98650.47;;;20.98;46.64
13767;BME280;47980;48.794;9.176;2022-08-11T00:52:04;98648.53;;;20.91;46.27
13767;BME280;47980;48.794;9.176;2022-08-11T01:01:25;98641.97;;;20.85;47.18
13767;BME280;47980;48.794;9.176;2022-08-11T01:04:19;98642.31;;;20.83;47.10
13767;BME280;47980;48.794;9.176;2022-08-11T01:10:21;98639.25;;;20.81;46.83
13767;BME280;47980;48.794;9.176;2022-08-11T01:13:44;98647.72;;;20.80;47.55
13767;BME280;47980;48.794;9.176;2022-08-11T01:16:57;98652.31;;;20.72;48.09
13767;BME280;47980;48.794;9.176;2022-08-11T01:32:48;98644.25;;;20.17;49.01
13767;BME280;47980;48.794;9.176;2022-08-11T01:35:47;98644.75;;;20.33;48.93
13767;BME280;47980;48.794;9.176;2022-08-11T01:39:03;98635.91;;;20.36;49.16
13767;BME280;47980;48.794;9.176;2022-08-11T01:41:54;98632.81;;;20.34;48.47
13767;BME280;47980;48.794;9.176;2022-08-11T01:45:23;98635.88;;;20.33;48.50
13767;BME280;47980;48.794;9.176;2022-08-11T01:48:02;98630.50;;;20.36;48.80
13767;BME280;47980;48.794;9.176;2022-08-11T01:51:03;98637.78;;;20.29;49.39
13767;BME280;47980;48.794;9.176;2022-08-11T01:53:50;98632.81;;;20.34;49.61
13767;BME280;47980;48.794;9.176;2022-08-11T01:56:41;98628.16;;;20.28;50.10
13767;BME280;47980;48.794;9.176;2022-08-11T01:59:22;98630.06;;;20.24;49.49
13767;BME280;47980;48.794;9.176;2022-08-11T02:02:22;98624.25;;;20.18;50.55
13767;BME280;47980;48.794;9.176;2022-08-11T02:05:54;98625.81;;;20.19;49.90
13767;BME280;47980;48.794;9.176;2022-08-11T02:08:44;98636.94;;;20.17;50.20
13767;BME280;47980;48.794;9.176;2022-08-11T02:11:24;98627.94;;;19.95;50.93
13767;BME280;47980;48.794;9.176;2022-08-11T02:14:14;98629.41;;;20.41;48.34
13767;BME280;47980;48.794;9.176;2022-08-11T02:19:52;98648.09;;;20.12;49.67
13767;BME280;47980;48.794;9.176;2022-08-11T02:22:50;98623.28;;;19.89;49.45
13767;BME280;47980;48.794;9.176;2022-08-11T02:25:54;98619.75;;;19.81;50.29
13767;BME280;47980;48.794;9.176;2022-08-11T02:28:41;98618.47;;;19.64;51.31
13767;BME280;47980;48.794;9.176;2022-08-11T02:31:24;98614.94;;;19.19;52.46
13767;BME280;47980;48.794;9.176;2022-08-11T02:34:27;98628.19;;;19.39;52.06
13767;BME280;47980;48.794;9.176;2022-08-11T02:37:12;98626.88;;;19.22;52.05
13767;BME280;47980;48.794;9.176;2022-08-11T02:39:58;98627.72;;;19.30;52.29
13767;BME280;47980;48.794;9.176;2022-08-11T02:42:49;98632.19;;;19.15;52.46
13767;BME280;47980;48.794;9.176;2022-08-11T02:45:39;98625.34;;;19.21;52.37
13767;BME280;47980;48.794;9.176;2022-08-11T02:48:28;98620.22;;;19.09;52.60
13767;BME280;47980;48.794;9.176;2022-08-11T02:51:29;98628.84;;;18.91;53.74
13767;BME280;47980;48.794;9.176;2022-08-11T02:54:09;98622.88;;;19.05;52.99
13767;BME280;47980;48.794;9.176;2022-08-11T02:56:49;98630.19;;;19.08;53.34
13767;BME280;47980;48.794;9.176;2022-08-11T02:59:31;98631.13;;;19.23;52.31
13767;BME280;47980;48.794;9.176;2022-08-11T03:02:40;98625.00;;;19.26;51.95
13767;BME280;47980;48.794;9.176;2022-08-11T03:05:29;98628.72;;;19.52;51.30
13767;BME280;47980;48.794;9.176;2022-08-11T03:08:14;98630.66;;;19.55;51.76
13767;BME280;47980;48.794;9.176;2022-08-11T03:10:54;98635.16;;;19.40;51.80
13767;BME280;47980;48.794;9.176;2022-08-11T03:13:58;98624.59;;;19.24;52.79
13767;BME280;47980;48.794;9.176;2022-08-11T03:16:59;98636.44;;;19.16;53.92
13767;BME280;47980;48.794;9.176;2022-08-11T03:19:44;98633.88;;;19.30;52.22
13767;BME280;47980;48.794;9.176;2022-08-11T03:22:21;98630.34;;;19.22;52.97
13767;BME280;47980;48.794;9.176;2022-08-11T03:24:58;98634.44;;;19.09;53.39
13767;BME280;47980;48.794;9.176;2022-08-11T03:27:38;98641.22;;;18.96;54.29
13767;BME280;47980;48.794;9.176;2022-08-11T03:30:17;98638.97;;;19.02;53.17
13767;BME280;47980;48.794;9.176;2022-08-11T03:32:59;98637.09;;;19.43;51.81
13767;BME280;47980;48.794;9.176;2022-08-11T03:36:04;98639.50;;;19.55;51.67
13767;BME280;47980;48.794;9.176;2022-08-11T03:38:47;98649.00;;;19.79;50.67
13767;BME280;47980;48.794;9.176;2022-08-11T03:41:31;98651.00;;;19.93;50.43
13767;BME280;47980;48.794;9.176;2022-08-11T03:44:28;98648.59;;;19.81;50.76
13767;BME280;47980;48.794;9.176;2022-08-11T03:47:24;98653.88;;;19.66;51.05
13767;BME280;47980;48.794;9.176;2022-08-11T03:50:06;98640.84;;;19.35;52.37
13767;BME280;47980;48.794;9.176;2022-08-11T03:52:50;98652.09;;;19.07;52.96
13767;BME280;47980;48.794;9.176;2022-08-11T03:55:38;98652.44;;;19.05;53.65
13767;BME280;47980;48.794;9.176;2022-08-11T03:58:32;98658.06;;;18.93;53.75
13767;BME280;47980;48.794;9.176;2022-08-11T04:01:37;98658.38;;;18.88;55.14
13767;BME280;47980;48.794;9.176;2022-08-11T04:14:11;98649.91;;;18.56;56.41
13767;BME280;47980;48.794;9.176;2022-08-11T04:17:49;98648.38;;;18.58;56.69
13767;BME280;47980;48.794;9.176;2022-08-11T04:20:57;98655.94;;;18.75;55.52
13767;BME280;47980;48.794;9.176;2022-08-11T04:24:14;98648.47;;;18.65;56.70
13767;BME280;47980;48.794;9.176;2022-08-11T04:27:18;98651.16;;;18.65;56.54
13767;BME280;47980;48.794;9.176;2022-08-11T04:30:00;98649.41;;;18.76;56.34
13767;BME280;47980;48.794;9.176;2022-08-11T04:33:01;98653.34;;;18.83;56.26
13767;BME280;47980;48.794;9.176;2022-08-11T04:35:51;98652.97;;;18.84;56.81
13767;BME280;47980;48.794;9.176;2022-08-11T04:38:43;98654.28;;;18.97;55.30
13767;BME280;47980;48.794;9.176;2022-08-11T04:41:55;98651.41;;;19.17;53.74
13767;BME280;47980;48.794;9.176;2022-08-11T04:45:29;98642.19;;;19.55;52.18
13767;BME280;47980;48.794;9.176;2022-08-11T04:48:37;98645.44;;;19.71;51.44
13767;BME280;47980;48.794;9.176;2022-08-11T04:51:43;98650.78;;;19.68;52.87
13767;BME280;47980;48.794;9.176;2022-08-11T04:54:45;98654.66;;;19.70;52.63
13767;BME280;47980;48.794;9.176;2022-08-11T04:57:50;98654.31;;;19.72;52.37
13767;BME280;47980;48.794;9.176;2022-08-11T05:00:51;98657.19;;;19.97;51.73
13767;BME280;47980;48.794;9.176;2022-08-11T05:06:55;98661.28;;;20.28;51.34
13767;BME280;47980;48.794;9.176;2022-08-11T05:09:49;98666.56;;;20.73;49.84
13767;BME280;47980;48.794;9.176;2022-08-11T05:12:40;98670.03;;;20.77;49.51
13767;BME280;47980;48.794;9.176;2022-08-11T05:15:14;98658.56;;;20.98;49.24
13767;BME280;47980;48.794;9.176;2022-08-11T05:18:13;98659.03;;;21.14;48.77
13767;BME280;47980;48.794;9.176;2022-08-11T05:21:08;98658.25;;;21.10;48.29
13767;BME280;47980;48.794;9.176;2022-08-11T05:24:08;98667.13;;;21.18;48.59
13767;BME280;47980;48.794;9.176;2022-08-11T05:27:04;98663.69;;;21.31;48.31
13767;BME280;47980;48.794;9.176;2022-08-11T05:29:59;98664.81;;;21.20;48.25
13767;BME280;47980;48.794;9.176;2022-08-11T05:32:56;98665.59;;;21.27;49.07
13767;BME280;47980;48.794;9.176;2022-08-11T05:35:49;98661.81;;;21.43;48.17
13767;BME280;47980;48.794;9.176;2022-08-11T05:38:29;98662.19;;;21.45;48.48
13767;BME280;47980;48.794;9.176;2022-08-11T05:41:23;98666.47;;;21.60;47.91
13767;BME280;47980;48.794;9.176;2022-08-11T05:44:17;98661.84;;;21.57;48.45
13767;BME280;47980;48.794;9.176;2022-08-11T05:47:08;98666.09;;;21.54;47.92
13767;BME280;47980;48.794;9.176;2022-08-11T05:49:57;98676.16;;;21.79;48.29
13767;BME280;47980;48.794;9.176;2022-08-11T05:52:52;98668.06;;;21.90;47.30
13767;BME280;47980;48.794;9.176;2022-08-11T05:55:43;98678.84;;;21.75;48.06
13767;BME280;47980;48.794;9.176;2022-08-11T05:58:34;98681.13;;;21.55;47.67
13767;BME280;47980;48.794;9.176;2022-08-11T06:01:07;98672.66;;;21.82;47.47
13767;BME280;47980;48.794;9.176;2022-08-11T06:03:42;98674.22;;;21.83;48.00
13767;BME280;47980;48.794;9.176;2022-08-11T06:06:29;98668.81;;;21.69;47.87
13767;BME280;47980;48.794;9.176;2022-08-11T06:09:07;98668.81;;;21.90;48.06
13767;BME280;47980;48.794;9.176;2022-08-11T06:11:41;98667.25;;;22.10;46.63
13767;BME280;47980;48.794;9.176;2022-08-11T06:14:13;98675.00;;;21.94;46.94
13767;BME280;47980;48.794;9.176;2022-08-11T06:16:49;98664.53;;;22.10;47.44
13767;BME280;47980;48.794;9.176;2022-08-11T06:19:32;98664.53;;;22.35;47.00
13767;BME280;47980;48.794;9.176;2022-08-11T06:22:06;98666.03;;;22.54;45.74
13767;BME280;47980;48.794;9.176;2022-08-11T06:24:51;98669.59;;;22.23;46.67
13767;BME280;47980;48.794;9.176;2022-08-11T06:27:28;98670.72;;;22.32;47.31
13767;BME280;47980;48.794;9.176;2022-08-11T06:30:04;98664.16;;;22.44;46.26
13767;BME280;47980;48.794;9.176;2022-08-11T06:32:44;98674.59;;;22.42;46.28
13767;BME280;47980;48.794;9.176;2022-08-11T06:35:20;98670.72;;;22.43;46.47
13767;BME280;47980;48.794;9.176;2022-08-11T06:38:04;98673.81;;;22.38;47.09
13767;BME280;47980;48.794;9.176;2022-08-11T06:40:48;98675.69;;;22.66;46.43
13767;BME280;47980;48.794;9.176;2022-08-11T06:43:46;98676.84;;;22.65;46.35
13767;BME280;47980;48.794;9.176;2022-08-11T06:46:24;98674.50;;;22.71;46.66
13767;BME280;47980;48.794;9.176;2022-08-11T06:49:00;98671.81;;;22.74;46.01
13767;BME280;47980;48.794;9.176;2022-08-11T06:51:33;98674.97;;;22.44;46.77
13767;BME280;47980;48.794;9.176;2022-08-11T06:54:11;98677.22;;;22.71;46.48
13767;BME280;47980;48.794;9.176;2022-08-11T06:56:46;98678.34;;;22.88;45.52
13767;BME280;47980;48.794;9.176;2022-08-11T06:59:36;98668.66;;;22.83;45.57
13767;BME280;47980;48.794;9.176;2022-08-11T07:02:29;98666.34;;;22.92;45.76
13767;BME280;47980;48.794;9.176;2022-08-11T07:05:07;98668.97;;;23.14;45.50
13767;BME280;47980;48.794;9.176;2022-08-11T07:08:14;98673.97;;;23.19;45.56
13767;BME280;47980;48.794;9.176;2022-08-11T07:14:26;98673.25;;;23.08;45.42
13767;BME280;47980;48.794;9.176;2022-08-11T07:17:21;98663.09;;;23.22;45.49
13767;BME280;47980;48.794;9.176;2022-08-11T07:19:56;98660.22;;;23.54;45.11
13767;BME280;47980;48.794;9.176;2022-08-11T07:22:51;98664.06;;;23.57;45.24
13767;BME280;47980;48.794;9.176;2022-08-11T07:25:43;98662.28;;;23.92;44.27
13767;BME280;47980;48.794;9.176;2022-08-11T07:28:39;98664.88;;;24.06;44.06
13767;BME280;47980;48.794;9.176;2022-08-11T07:31:32;98657.47;;;24.10;43.73
13767;BME280;47980;48.794;9.176;2022-08-11T07:34:16;98659.22;;;23.90;43.95
13767;BME280;47980;48.794;9.176;2022-08-11T07:36:52;98646.50;;;24.24;43.56
13767;BME280;47980;48.794;9.176;2022-08-11T07:39:25;98652.91;;;24.79;43.42
13767;BME280;47980;48.794;9.176;2022-08-11T07:41:59;98652.09;;;24.48;43.22
13767;BME280;47980;48.794;9.176;2022-08-11T07:44:35;98658.03;;;24.73;42.74
13767;BME280;47980;48.794;9.176;2022-08-11T07:47:29;98654.25;;;24.64;42.47
13767;BME280;47980;48.794;9.176;2022-08-11T07:50:18;98656.88;;;25.02;41.82
13767;BME280;47980;48.794;9.176;2022-08-11T07:53:08;98644.09;;;25.02;42.18
13767;BME280;47980;48.794;9.176;2022-08-11T07:55:41;98645.22;;;25.05;41.96
13767;BME280;47980;48.794;9.176;2022-08-11T07:58:13;98647.88;;;25.12;41.89
13767;BME280;47980;48.794;9.176;2022-08-11T08:01:04;98648.63;;;25.12;41.70
13767;BME280;47980;48.794;9.176;2022-08-11T08:03:58;98643.47;;;25.21;41.33
13767;BME280;47980;48.794;9.176;2022-08-11T08:06:47;98655.31;;;25.04;41.59
13767;BME280;47980;48.794;9.176;2022-08-11T08:09:37;98642.91;;;25.03;40.87
13767;BME280;47980;48.794;9.176;2022-08-11T08:12:29;98640.84;;;25.14;41.94
13767;BME280;47980;48.794;9.176;2022-08-11T08:15:20;98640.19;;;25.61;40.70
13767;BME280;47980;48.794;9.176;2022-08-11T08:18:10;98641.13;;;25.51;40.72
13767;BME280;47980;48.794;9.176;2022-08-11T08:20:46;98648.56;;;25.70;40.09
13767;BME280;47980;48.794;9.176;2022-08-11T08:23:22;98647.03;;;25.69;40.23
13767;BME280;47980;48.794;9.176;2022-08-11T08:26:05;98643.59;;;26.15;39.16
13767;BME280;47980;48.794;9.176;2022-08-11T08:29:01;98644.81;;;26.54;38.38
13767;BME280;47980;48.794;9.176;2022-08-11T08:31:47;98639.44;;;26.51;38.03
13767;BME280;47980;48.794;9.176;2022-08-11T08:34:21;98650.31;;;26.91;37.67
13767;BME280;47980;48.794;9.176;2022-08-11T08:36:54;98644.34;;;26.59;38.49
13767;BME280;47980;48.794;9.176;2022-08-11T08:39:26;98642.88;;;26.55;38.31
13767;BME280;47980;48.794;9.176;2022-08-11T08:41:58;98648.00;;;26.73;38.06
13767;BME280;47980;48.794;9.176;2022-08-11T08:44:33;98646.44;;;26.72;37.87
13767;BME280;47980;48.794;9.176;2022-08-11T08:47:06;98657.47;;;26.84;37.62
13767;BME280;47980;48.794;9.176;2022-08-11T08:49:44;98639.03;;;26.92;37.90
13767;BME280;47980;48.794;9.176;2022-08-11T08:52:22;98645.00;;;27.03;37.06
13767;BME280;47980;48.794;9.176;2022-08-11T08:54:57;98648.78;;;27.09;37.32
13767;BME280;47980;48.794;9.176;2022-08-11T08:57:33;98641.84;;;27.05;37.67
13767;BME280;47980;48.794;9.176;2022-08-11T09:00:06;98630.44;;;27.30;37.80
13767;BME280;47980;48.794;9.176;2022-08-11T09:02:39;98634.81;;;27.44;36.55
13767;BME280;47980;48.794;9.176;2022-08-11T09:05:11;98637.28;;;27.38;36.26
13767;BME280;47980;48.794;9.176;2022-08-11T09:07:46;98624.69;;;27.60;36.20
13767;BME280;47980;48.794;9.176;2022-08-11T09:10:20;98626.25;;;27.78;35.77
13767;BME280;47980;48.794;9.176;2022-08-11T09:12:53;98634.13;;;27.72;35.21
13767;BME280;47980;48.794;9.176;2022-08-11T09:15:25;98638.63;;;27.95;34.81
13767;BME280;47980;48.794;9.176;2022-08-11T09:18:00;98630.41;;;27.82;34.48
13767;BME280;47980;48.794;9.176;2022-08-11T09:20:36;98623.28;;;27.52;34.49
13767;BME280;47980;48.794;9.176;2022-08-11T09:23:10;98632.00;;;27.96;34.49
13767;BME280;47980;48.794;9.176;2022-08-11T09:26:00;98631.00;;;27.90;33.90
13767;BME280;47980;48.794;9.176;2022-08-11T09:28:51;98634.56;;;27.71;33.83
13767;BME280;47980;48.794;9.176;2022-08-11T09:31:23;98633.97;;;27.79;33.61
13767;BME280;47980;48.794;9.176;2022-08-11T09:33:56;98634.31;;;27.81;34.42
13767;BME280;47980;48.794;9.176;2022-08-11T09:36:29;98639.66;;;27.85;33.94
13767;BME280;47980;48.794;9.176;2022-08-11T09:39:20;98632.25;;;28.02;34.01
13767;BME280;47980;48.794;9.176;2022-08-11T09:42:10;98625.06;;;28.08;34.31
13767;BME280;47980;48.794;9.176;2022-08-11T09:44:43;98626.19;;;27.94;33.32
13767;BME280;47980;48.794;9.176;2022-08-11T09:47:23;98627.38;;;28.10;33.98
13767;BME280;47980;48.794;9.176;2022-08-11T09:49:58;98624.19;;;28.57;33.32
13767;BME280;47980;48.794;9.176;2022-08-11T09:52:33;98621.63;;;28.20;33.64
13767;BME280;47980;48.794;9.176;2022-08-11T09:55:08;98626.84;;;28.15;32.74
13767;BME280;47980;48.794;9.176;2022-08-11T09:57:46;98625.84;;;28.08;32.78
13767;BME280;47980;48.794;9.176;2022-08-11T10:00:36;98627.41;;;27.93;32.76
13767;BME280;47980;48.794;9.176;2022-08-11T10:03:15;98616.63;;;28.02;32.88
13767;BME280;47980;48.794;9.176;2022-08-11T10:05:50;98616.75;;;28.28;32.49
13767;BME280;47980;48.794;9.176;2022-08-11T10:08:42;98613.47;;;28.49;32.50
13767;BME280;47980;48.794;9.176;2022-08-11T10:11:17;98623.97;;;28.05;33.43
13767;BME280;47980;48.794;9.176;2022-08-11T10:13:52;98617.25;;;28.39;32.72
13767;BME280;47980;48.794;9.176;2022-08-11T10:16:42;98612.78;;;28.16;31.88
13767;BME280;47980;48.794;9.176;2022-08-11T10:19:16;98605.16;;;27.95;32.69
13767;BME280;47980;48.794;9.176;2022-08-11T10:21:52;98611.97;;;27.87;32.71
13767;BME280;47980;48.794;9.176;2022-08-11T10:24:40;98605.06;;;28.27;32.90
13767;BME280;47980;48.794;9.176;2022-08-11T10:27:33;98603.09;;;27.99;32.32
13767;BME280;47980;48.794;9.176;2022-08-11T10:30:06;98614.66;;;28.19;32.11
13767;BME280;47980;48.794;9.176;2022-08-11T10:32:56;98603.84;;;28.45;31.68
13767;BME280;47980;48.794;9.176;2022-08-11T10:35:46;98606.19;;;28.14;32.33
13767;BME280;47980;48.794;9.176;2022-08-11T10:38:18;98610.69;;;28.37;31.60
13767;BME280;47980;48.794;9.176;2022-08-11T10:40:50;98600.41;;;28.70;32.12
13767;BME280;47980;48.794;9.176;2022-08-11T10:43:45;98599.75;;;28.78;31.88
13767;BME280;47980;48.794;9.176;2022-08-11T10:46:16;98590.41;;;29.05;31.91
13767;BME280;47980;48.794;9.176;2022-08-11T10:49:08;98587.97;;;28.94;31.62
13767;BME280;47980;48.794;9.176;2022-08-11T10:51:40;98582.00;;;28.99;32.01
13767;BME280;47980;48.794;9.176;2022-08-11T10:54:29;98588.34;;;29.09;31.20
13767;BME280;47980;48.794;9.176;2022-08-11T10:57:19;98589.88;;;29.10;30.55
13767;BME280;47980;48.794;9.176;2022-08-11T11:00:12;98580.56;;;29.08;30.44
13767;BME280;47980;48.794;9.176;2022-08-11T11:02:45;98577.59;;;28.89;31.38
13767;BME280;47980;48.794;9.176;2022-08-11T11:05:22;98571.91;;;28.84;30.78
13767;BME280;47980;48.794;9.176;2022-08-11T11:08:00;98570.78;;;28.68;31.75
13767;BME280;47980;48.794;9.176;2022-08-11T11:10:53;98564.13;;;28.82;30.60
13767;BME280;47980;48.794;9.176;2022-08-11T11:13:25;98558.25;;;28.84;30.73
13767;BME280;47980;48.794;9.176;2022-08-11T11:16:15;98560.66;;;29.33;30.19
13767;BME280;47980;48.794;9.176;2022-08-11T11:19:06;98558.53;;;29.62;30.40
13767;BME280;47980;48.794;9.176;2022-08-11T11:21:40;98552.78;;;29.82;29.04
13767;BME280;47980;48.794;9.176;2022-08-11T11:24:19;98551.81;;;29.29;29.67
13767;BME280;47980;48.794;9.176;2022-08-11T11:26:59;98560.66;;;28.69;30.29
13767;BME280;47980;48.794;9.176;2022-08-11T11:29:50;98562.59;;;28.68;30.79
13767;BME280;47980;48.794;9.176;2022-08-11T11:32:39;98545.56;;;28.90;30.78
13767;BME280;47980;48.794;9.176;2022-08-11T11:35:23;98542.75;;;29.06;29.96
13767;BME280;47980;48.794;9.176;2022-08-11T11:37:57;98540.34;;;29.08;29.95
13767;BME280;47980;48.794;9.176;2022-08-11T11:40:30;98538.47;;;29.18;29.38
13767;BME280;47980;48.794;9.176;2022-08-11T11:43:03;98537.13;;;29.35;29.33
13767;BME280;47980;48.794;9.176;2022-08-11T11:45:35;98532.78;;;29.72;29.32
13767;BME280;47980;48.794;9.176;2022-08-11T11:48:10;98538.00;;;29.32;28.85
13767;BME280;47980;48.794;9.176;2022-08-11T11:50:42;98538.47;;;29.31;29.32
13767;BME280;47980;48.794;9.176;2022-08-11T11:53:14;98521.13;;;29.46;29.47
13767;BME280;47980;48.794;9.176;2022-08-11T11:55:46;98523.31;;;29.64;28.92
13767;BME280;47980;48.794;9.176;2022-08-11T11:58:18;98520.00;;;29.91;29.57
13767;BME280;47980;48.794;9.176;2022-08-11T12:01:08;98526.19;;;30.05;28.54
13767;BME280;47980;48.794;9.176;2022-08-11T12:03:55;98521.41;;;29.74;28.79
13767;BME280;47980;48.794;9.176;2022-08-11T12:06:28;98511.19;;;29.40;29.55
13767;BME280;47980;48.794;9.176;2022-08-11T12:09:00;98512.44;;;29.73;29.27
13767;BME280;47980;48.794;9.176;2022-08-11T12:11:32;98517.13;;;29.73;28.06
13767;BME280;47980;48.794;9.176;2022-08-11T12:14:21;98512.69;;;29.54;28.34
13767;BME280;47980;48.794;9.176;2022-08-11T12:16:57;98506.00;;;29.55;27.86
13767;BME280;47980;48.794;9.176;2022-08-11T12:19:31;98506.25;;;29.60;28.96
13767;BME280;47980;48.794;9.176;2022-08-11T12:22:03;98503.34;;;29.42;28.92
13767;BME280;47980;48.794;9.176;2022-08-11T12:24:52;98493.84;;;29.56;29.39
13767;BME280;47980;48.794;9.176;2022-08-11T12:27:41;98502.91;;;29.78;29.16
13767;BME280;47980;48.794;9.176;2022-08-11T12:30:13;98492.72;;;30.01;28.00
13767;BME280;47980;48.794;9.176;2022-08-11T12:32:45;98494.50;;;29.72;26.89
13767;BME280;47980;48.794;9.176;2022-08-11T12:35:19;98493.81;;;30.03;28.08
13767;BME280;47980;48.794;9.176;2022-08-11T12:37:53;98490.56;;;30.17;28.21
13767;BME280;47980;48.794;9.176;2022-08-11T12:40:28;98488.25;;;30.16;28.40
13767;BME280;47980;48.794;9.176;2022-08-11T12:43:20;98488.34;;;30.03;27.80
13767;BME280;47980;48.794;9.176;2022-08-11T12:46:13;98482.66;;;29.97;28.25
13767;BME280;47980;48.794;9.176;2022-08-11T12:48:50;98485.63;;;30.12;27.73
13767;BME280;47980;48.794;9.176;2022-08-11T12:51:48;98469.88;;;29.94;28.22
13767;BME280;47980;48.794;9.176;2022-08-11T12:54:30;98469.84;;;30.38;27.52
13767;BME280;47980;48.794;9.176;2022-08-11T12:57:06;98483.22;;;30.36;27.44
13767;BME280;47980;48.794;9.176;2022-08-11T12:59:58;98469.16;;;30.56;26.85
13767;BME280;47980;48.794;9.176;2022-08-11T13:02:48;98481.41;;;30.42;27.10
13767;BME280;47980;48.794;9.176;2022-08-11T13:05:39;98469.75;;;30.20;26.67
13767;BME280;47980;48.794;9.176;2022-08-11T13:08:14;98466.81;;;30.14;26.86
13767;BME280;47980;48.794;9.176;2022-08-11T13:10:49;98464.91;;;30.64;26.55
13767;BME280;47980;48.794;9.176;2022-08-11T13:13:40;98458.78;;;30.20;27.13
13767;BME280;47980;48.794;9.176;2022-08-11T13:16:13;98456.69;;;30.24;27.44
13767;BME280;47980;48.794;9.176;2022-08-11T13:18:46;98451.28;;;30.11;27.19
13767;BME280;47980;48.794;9.176;2022-08-11T13:21:20;98445.03;;;30.33;27.47
13767;BME280;47980;48.794;9.176;2022-08-11T13:23:55;98450.31;;;30.05;27.10
13767;BME280;47980;48.794;9.176;2022-08-11T13:26:31;98449.69;;;30.23;26.98
13767;BME280;47980;48.794;9.176;2022-08-11T13:29:04;98444.13;;;30.36;27.31
13767;BME280;47980;48.794;9.176;2022-08-11T13:31:36;98445.31;;;30.35;26.06
13767;BME280;47980;48.794;9.176;2022-08-11T13:34:08;98434.31;;;30.57;26.79
13767;BME280;47980;48.794;9.176;2022-08-11T13:36:41;98439.84;;;30.35;26.43
13767;BME280;47980;48.794;9.176;2022-08-11T13:39:14;98436.81;;;30.33;27.26
13767;BME280;47980;48.794;9.176;2022-08-11T13:41:47;98434.91;;;30.52;26.54
13767;BME280;47980;48.794;9.176;2022-08-11T13:44:19;98440.34;;;30.42;27.10
13767;BME280;47980;48.794;9.176;2022-08-11T13:46:52;98431.91;;;30.68;26.49
13767;BME280;47980;48.794;9.176;2022-08-11T13:49:24;98433.81;;;30.40;25.99
13767;BME280;47980;48.794;9.176;2022-08-11T13:51:59;98431.88;;;30.18;26.60
13767;BME280;47980;48.794;9.176;2022-08-11T13:54:34;98428.47;;;30.45;26.59
13767;BME280;47980;48.794;9.176;2022-08-11T13:57:08;98412.91;;;30.74;25.88
13767;BME280;47980;48.794;9.176;2022-08-11T13:59:41;98409.94;;;30.99;25.90
13767;BME280;47980;48.794;9.176;2022-08-11T14:02:15;98408.09;;;30.87;26.89
13767;BME280;47980;48.794;9.176;2022-08-11T14:04:52;98400.63;;;30.97;26.10
13767;BME280;47980;48.794;9.176;2022-08-11T14:07:26;98399.84;;;30.78;25.66
13767;BME280;47980;48.794;9.176;2022-08-11T14:10:08;98401.00;;;30.58;26.73
13767;BME280;47980;48.794;9.176;2022-08-11T14:12:46;98394.94;;;30.73;26.52
13767;BME280;47980;48.794;9.176;2022-08-11T14:15:41;98402.69;;;30.74;25.96
13767;BME280;47980;48.794;9.176;2022-08-11T14:18:17;98396.41;;;30.55;26.70
13767;BME280;47980;48.794;9.176;2022-08-11T14:20:51;98386.47;;;30.80;26.15
13767;BME280;47980;48.794;9.176;2022-08-11T14:23:44;98390.97;;;30.74;25.50
13767;BME280;47980;48.794;9.176;2022-08-11T14:26:19;98377.53;;;30.57;26.39
13767;BME280;47980;48.794;9.176;2022-08-11T14:28:59;98392.78;;;30.58;26.70
13767;BME280;47980;48.794;9.176;2022-08-11T14:31:33;98389.06;;;30.83;26.31
13767;BME280;47980;48.794;9.176;2022-08-11T14:34:08;98379.44;;;30.97;25.40
13767;BME280;47980;48.794;9.176;2022-08-11T14:36:43;98376.41;;;30.86;26.20
13767;BME280;47980;48.794;9.176;2022-08-11T14:39:17;98386.63;;;30.95;25.27
13767;BME280;47980;48.794;9.176;2022-08-11T14:41:53;98387.13;;;30.53;25.19
13767;BME280;47980;48.794;9.176;2022-08-11T14:44:44;98376.66;;;30.69;24.91
13767;BME280;47980;48.794;9.176;2022-08-11T14:47:35;98381.28;;;30.82;24.63
13767;BME280;47980;48.794;9.176;2022-08-11T14:50:10;98377.34;;;31.10;25.77
13767;BME280;47980;48.794;9.176;2022-08-11T14:52:48;98372.13;;;30.76;25.25
13767;BME280;47980;48.794;9.176;2022-08-11T14:55:23;98383.50;;;30.74;26.01
13767;BME280;47980;48.794;9.176;2022-08-11T14:58:16;98370.53;;;30.56;25.92
13767;BME280;47980;48.794;9.176;2022-08-11T15:00:51;98357.22;;;30.77;25.64
13767;BME280;47980;48.794;9.176;2022-08-11T15:03:24;98358.31;;;31.07;26.29
13767;BME280;47980;48.794;9.176;2022-08-11T15:05:56;98354.94;;;31.03;25.96
13767;BME280;47980;48.794;9.176;2022-08-11T15:08:30;98362.56;;;30.89;25.75
13767;BME280;47980;48.794;9.176;2022-08-11T15:11:23;98340.63;;;30.99;24.96